Plum Branch, SC (29845)

9:41 AM EDT on August 30, 2015 (GMT -0400)
Plum Branch South Carolina | | Change Station
CLOSE
Current Station
Personal Weather Station
Location: Plum Branch, SC
Elevation: 354 ft
Nearby Weather Stations

Elev 354 ft 33.81 °N, 82.31 °W | Updated 8 seconds ago

Rain
Rain
67.8 °F
Feels Like 67.8 °F
N
2.0
Wind Variable Wind from NNE
Gusts 8.0 mph

Today
High -- | Low -- °F
--% Chance of Precip.
Yesterday
High -- | Low -- °F
Precip. -- in
7:01 AM 7:57 PM
Full, 99% visible
Pressure 30.17 in
Visibility 5.0 miles
Clouds Scattered Clouds 3000 ft
Mostly Cloudy 4600 ft
Overcast 5500 ft
Dew Point 66 °F
Humidity 94%
Rainfall 0.22 in
Snow Depth Not available.
UV 1 out of 12
Pollen 1.90 out of 12
Air Quality Not available.
Flu Activity Not available.
METAR KHQU 301335Z AUTO 06004KT 5SM SCT030 BKN046 OVC055 22/22 A3017 RMK AO1 T02170217
Pressure 30.17 in
Visibility 5.0 miles
Clouds Scattered Clouds 3000 ft
Mostly Cloudy 4600 ft
Overcast 5500 ft
Dew Point 66 °F
Humidity 94%
Rainfall 0.22 in
Snow Depth Not available.
UV 1 out of 12
Pollen 1.90 out of 12
Air Quality Not available.
Flu Activity Not available.
METAR KHQU 301335Z AUTO 06004KT 5SM SCT030 BKN046 OVC055 22/22 A3017 RMK AO1 T02170217

10-Day Weather Forecast

×

Almanac

Astronomy

Aug. 30, 2015 Rise Set
Actual Time
Civil Twilight
Nautical Twilight
Astronomical Twilight
Moon
Length of Visible Light
Length of Day
Tomorrow will be .
, % of the Moon is Illuminated

Today's Extremes

State Highs State Lows

Community

WunderPhotos

Upload Photos

1,850,954 photos uploaded!

WunderBlogs® & News

Nearby

Air Quality

  Air Quality AQ Index Pollutant
Not available.

Snow Depth

Station Depth Elevation

Earthquake Activity

City Distance Mag. Time & Date
Minimum magnitude displayed is 2.5.

Coastal Water Temperatures

Place Temperature

Stations

Nearby Weather Stations

Station Location Temp. Windchill Dew Point Humidity Wind Precip. Elev Updated Type